createdAt,value
2022-07-26T00:00:12.834Z,94231.31
2022-07-26T00:02:47.695Z,94246.53
2022-07-26T00:07:42.019Z,94239.63
2022-07-26T00:10:09.136Z,94246.44
2022-07-26T00:12:36.044Z,94235.00
2022-07-26T00:15:04.090Z,94239.59
2022-07-26T00:17:30.705Z,94249.41
2022-07-26T00:19:57.341Z,94233.41
2022-07-26T00:22:35.932Z,94231.88
2022-07-26T00:25:07.499Z,94233.00
2022-07-26T00:27:37.433Z,94234.84
2022-07-26T00:30:06.268Z,94245.09
2022-07-26T00:32:32.995Z,94241.28
2022-07-26T00:34:59.600Z,94238.56
2022-07-26T00:37:26.278Z,94244.59
2022-07-26T00:39:52.886Z,94233.91
2022-07-26T00:42:19.510Z,94232.00
2022-07-26T00:44:46.314Z,94226.28
2022-07-26T00:47:13.976Z,94227.78
2022-07-26T00:49:41.578Z,94235.72
2022-07-26T00:52:09.539Z,94233.06
2022-07-26T00:54:37.387Z,94231.53
2022-07-26T00:57:05.003Z,94239.13
2022-07-26T00:59:31.699Z,94230.63
2022-07-26T01:01:58.762Z,94238.16
2022-07-26T01:04:25.786Z,94225.97
2022-07-26T01:06:53.455Z,94228.56
2022-07-26T01:09:20.164Z,94218.72
2022-07-26T01:11:46.866Z,94217.59
2022-07-26T01:14:13.521Z,94232.00
2022-07-26T01:16:40.410Z,94230.78
2022-07-26T01:19:07.066Z,94228.81
2022-07-26T01:21:34.110Z,94222.69
2022-07-26T01:24:01.193Z,94222.59
2022-07-26T01:26:28.436Z,94218.72
2022-07-26T01:28:55.064Z,94219.09
2022-07-26T01:31:22.103Z,94216.75
2022-07-26T01:33:50.437Z,94218.25
2022-07-26T01:36:17.732Z,94213.28
2022-07-26T01:38:44.422Z,94217.81
2022-07-26T01:41:12.135Z,94214.38
2022-07-26T01:43:39.232Z,94226.00
2022-07-26T01:46:10.102Z,94215.25
2022-07-26T01:48:37.118Z,94208.31
2022-07-26T01:51:04.007Z,94216.28
2022-07-26T01:53:30.692Z,94212.91
2022-07-26T01:55:57.720Z,94221.28
2022-07-26T01:58:24.815Z,94217.09
2022-07-26T02:00:51.559Z,94211.09
2022-07-26T02:03:18.544Z,94209.22
2022-07-26T02:05:45.559Z,94213.38
2022-07-26T02:08:12.221Z,94203.91
2022-07-26T02:10:58.379Z,94194.25
2022-07-26T02:13:25.171Z,94212.91
2022-07-26T02:15:51.990Z,94214.44
2022-07-26T02:18:18.732Z,94206.09
2022-07-26T02:20:45.416Z,94198.47
2022-07-26T02:23:12.339Z,94201.84
2022-07-26T02:25:39.068Z,94204.16
2022-07-26T02:28:05.710Z,94212.81
2022-07-26T02:30:32.402Z,94209.78
2022-07-26T02:33:00.320Z,94210.88
2022-07-26T02:35:27.270Z,94209.72
2022-07-26T02:37:53.856Z,94214.25
2022-07-26T02:40:20.472Z,94214.19
2022-07-26T02:42:47.149Z,94207.38
2022-07-26T02:45:13.750Z,94219.84
2022-07-26T02:47:48.571Z,94216.84
2022-07-26T02:50:19.453Z,94215.56
2022-07-26T02:52:49.765Z,94233.06
2022-07-26T02:55:17.791Z,94240.19
2022-07-26T02:57:46.388Z,94238.59
2022-07-26T03:00:20.098Z,94240.78
2022-07-26T03:02:49.090Z,94244.09
2022-07-26T03:05:16.774Z,94240.22
2022-07-26T03:07:43.365Z,94232.13
2022-07-26T03:10:10.233Z,94238.16
2022-07-26T03:12:36.882Z,94239.97
2022-07-26T03:15:04.015Z,94245.38
2022-07-26T03:17:30.598Z,94238.44
2022-07-26T03:19:59.216Z,94248.56
2022-07-26T03:22:25.887Z,94248.50
2022-07-26T03:24:52.493Z,94249.63
2022-07-26T03:27:19.124Z,94249.97
2022-07-26T03:29:45.761Z,94249.84
2022-07-26T03:32:12.401Z,94259.72
2022-07-26T03:34:39.001Z,94250.59
2022-07-26T03:37:05.620Z,94247.53
2022-07-26T03:39:32.300Z,94251.22
2022-07-26T03:41:58.946Z,94246.59
2022-07-26T03:44:25.536Z,94248.03
2022-07-26T03:46:52.201Z,94251.38
2022-07-26T03:49:19.048Z,94260.78
2022-07-26T03:51:45.717Z,94245.47
2022-07-26T03:54:12.628Z,94259.13
2022-07-26T03:56:40.468Z,94254.53
2022-07-26T03:59:09.041Z,94256.72
2022-07-26T04:01:37.370Z,94252.97
2022-07-26T04:04:04.576Z,94256.03
2022-07-26T04:06:31.517Z,94254.84
2022-07-26T04:08:58.210Z,94252.28
2022-07-26T04:11:26.537Z,94252.28
2022-07-26T04:13:54.988Z,94255.78
2022-07-26T04:16:21.570Z,94249.03
2022-07-26T04:18:48.255Z,94243.75
2022-07-26T04:21:14.964Z,94242.41
2022-07-26T04:23:41.758Z,94243.66
2022-07-26T04:26:08.478Z,94236.81
2022-07-26T04:28:35.131Z,94235.78
2022-07-26T04:31:01.841Z,94246.00
2022-07-26T04:33:28.513Z,94250.91
2022-07-26T04:35:55.288Z,94255.69
2022-07-26T04:38:22.249Z,94263.56
2022-07-26T04:40:50.921Z,94260.91
2022-07-26T04:43:18.287Z,94259.41
2022-07-26T04:45:48.449Z,94260.91
2022-07-26T04:48:15.911Z,94257.94
2022-07-26T04:50:43.569Z,94252.66
2022-07-26T04:53:11.173Z,94260.91
2022-07-26T04:55:38.585Z,94260.59
2022-07-26T04:58:05.649Z,94255.13
2022-07-26T05:00:32.481Z,94255.50
2022-07-26T05:03:00.667Z,94252.91
2022-07-26T05:05:29.774Z,94251.03
2022-07-26T05:08:00.629Z,94255.78
2022-07-26T05:10:35.287Z,94259.81
2022-07-26T05:13:06.430Z,94267.19
2022-07-26T05:15:35.089Z,94265.06
2022-07-26T05:18:07.071Z,94260.78
2022-07-26T05:20:34.890Z,94269.19
2022-07-26T05:23:01.624Z,94260.88
2022-07-26T05:25:28.360Z,94269.25
2022-07-26T05:27:54.999Z,94264.63
2022-07-26T05:30:21.749Z,94259.34
2022-07-26T05:32:48.392Z,94259.78
2022-07-26T05:35:15.130Z,94254.16
2022-07-26T05:37:41.809Z,94264.94
2022-07-26T05:40:09.286Z,94265.03
2022-07-26T05:42:36.158Z,94274.16
2022-07-26T05:45:03.883Z,94263.97
2022-07-26T05:47:30.560Z,94266.63
2022-07-26T05:49:57.362Z,94265.88
2022-07-26T05:52:24.029Z,94267.31
2022-07-26T05:54:50.706Z,94272.19
2022-07-26T05:57:17.376Z,94253.69
2022-07-26T05:59:43.996Z,94271.22
2022-07-26T06:02:10.671Z,94262.66
2022-07-26T06:04:37.348Z,94257.00
2022-07-26T06:07:04.019Z,94259.25
2022-07-26T06:09:30.659Z,94268.53
2022-07-26T06:11:57.287Z,94268.16
2022-07-26T06:14:24.649Z,94274.69
2022-07-26T06:16:51.407Z,94263.69
2022-07-26T06:19:18.078Z,94266.94
2022-07-26T06:21:46.111Z,94257.03
2022-07-26T06:24:13.113Z,94257.09
2022-07-26T06:26:39.964Z,94268.06
2022-07-26T06:29:06.619Z,94268.44
2022-07-26T06:31:33.856Z,94260.94
2022-07-26T06:34:00.510Z,94265.22
2022-07-26T06:36:30.544Z,94267.91
2022-07-26T06:38:58.013Z,94275.47
2022-07-26T06:41:24.654Z,94278.97
2022-07-26T06:43:51.241Z,94272.47
2022-07-26T06:46:19.446Z,94275.00
2022-07-26T06:48:47.560Z,94277.34
2022-07-26T06:51:19.557Z,94277.09
2022-07-26T06:53:46.128Z,94278.03
2022-07-26T06:56:14.904Z,94284.16
2022-07-26T06:58:42.554Z,94290.41
2022-07-26T07:01:09.575Z,94287.25
2022-07-26T07:03:36.276Z,94280.69
2022-07-26T07:06:03.240Z,94280.00
2022-07-26T07:08:29.866Z,94283.06
2022-07-26T07:10:56.770Z,94281.69
2022-07-26T07:13:23.730Z,94279.25
2022-07-26T07:15:50.359Z,94281.38
2022-07-26T07:18:17.169Z,94283.94
2022-07-26T07:20:43.763Z,94275.72
2022-07-26T07:23:10.362Z,94278.31
2022-07-26T07:25:36.996Z,94272.47
2022-07-26T07:28:04.155Z,94273.13
2022-07-26T07:30:31.009Z,94264.75
2022-07-26T07:32:57.699Z,94264.06
2022-07-26T07:35:24.322Z,94263.19
2022-07-26T07:37:58.425Z,94260.06
2022-07-26T07:40:25.214Z,94254.31
2022-07-26T07:42:52.616Z,94271.50
2022-07-26T07:45:19.266Z,94261.59
2022-07-26T07:47:45.933Z,94260.47
2022-07-26T07:50:12.618Z,94264.75
2022-07-26T07:52:39.220Z,94261.63
2022-07-26T07:55:36.915Z,94261.66
2022-07-26T07:57:54.476Z,94260.44
2022-07-26T08:00:27.216Z,94267.41
2022-07-26T08:02:54.951Z,94267.91
2022-07-26T08:05:21.749Z,94260.22
2022-07-26T08:07:49.541Z,94264.28
2022-07-26T08:10:19.187Z,94277.84
2022-07-26T08:12:45.817Z,94273.91
2022-07-26T08:15:18.000Z,94270.09
2022-07-26T08:17:51.049Z,94274.22
2022-07-26T08:20:20.730Z,94279.13
2022-07-26T08:22:50.909Z,94290.75
2022-07-26T08:25:17.643Z,94293.19
2022-07-26T08:27:55.072Z,94293.75
2022-07-26T08:30:29.555Z,94294.13
2022-07-26T08:32:56.189Z,94287.75
2022-07-26T08:35:22.930Z,94287.81
2022-07-26T08:37:49.593Z,94294.69
2022-07-26T08:40:16.515Z,94293.03
2022-07-26T08:42:54.398Z,94288.22
2022-07-26T08:45:23.219Z,94285.09
2022-07-26T08:48:15.002Z,94283.38
2022-07-26T08:50:37.195Z,94292.38
2022-07-26T08:53:09.148Z,94297.69
2022-07-26T08:56:04.373Z,94293.09
2022-07-26T08:58:23.269Z,94295.44
2022-07-26T09:01:06.922Z,94289.41
2022-07-26T09:03:33.952Z,94284.63
2022-07-26T09:06:15.534Z,94298.34
2022-07-26T09:08:42.776Z,94304.59
2022-07-26T09:11:24.376Z,94302.69
2022-07-26T09:14:02.849Z,94303.56
2022-07-26T09:16:30.856Z,94304.16
2022-07-26T09:19:18.993Z,94300.13
2022-07-26T09:21:46.668Z,94285.13
2022-07-26T09:24:13.998Z,94284.53
2022-07-26T09:26:40.696Z,94286.91
2022-07-26T09:29:12.772Z,94291.97
2022-07-26T09:31:40.357Z,94287.81
2022-07-26T09:34:08.173Z,94281.00
2022-07-26T09:36:51.118Z,94284.16
2022-07-26T09:39:17.799Z,94282.84
2022-07-26T09:42:25.090Z,94280.88
2022-07-26T09:44:48.177Z,94281.00
2022-07-26T09:47:14.994Z,94284.16
2022-07-26T09:49:42.331Z,94273.56
2022-07-26T09:52:35.377Z,94278.13
2022-07-26T09:55:06.390Z,94297.50
2022-07-26T09:57:35.215Z,94282.28
2022-07-26T10:00:05.649Z,94286.13
2022-07-26T10:02:33.206Z,94282.69
2022-07-26T10:04:59.841Z,94284.63
2022-07-26T10:07:26.612Z,94282.38
2022-07-26T10:09:59.459Z,94285.06
2022-07-26T10:12:31.261Z,94278.19
2022-07-26T10:14:58.107Z,94282.38
2022-07-26T10:17:35.238Z,94283.53
2022-07-26T10:20:16.840Z,94271.34
2022-07-26T10:22:50.632Z,94286.97
2022-07-26T10:25:17.377Z,94293.47
2022-07-26T10:27:45.502Z,94280.09
2022-07-26T10:30:18.353Z,94293.44
2022-07-26T10:32:51.370Z,94291.94
2022-07-26T10:35:45.021Z,94299.19
2022-07-26T10:38:22.132Z,94288.09
2022-07-26T10:41:07.605Z,94292.25
2022-07-26T10:43:42.835Z,94296.41
2022-07-26T10:46:15.555Z,94293.72
2022-07-26T10:49:06.374Z,94297.13
2022-07-26T10:51:34.514Z,94290.22
2022-07-26T10:54:09.417Z,94292.94
2022-07-26T10:56:37.760Z,94299.47
2022-07-26T10:59:05.991Z,94303.34
2022-07-26T11:01:41.005Z,94301.84
2022-07-26T11:04:27.992Z,94302.56
2022-07-26T11:07:00.630Z,94297.19
2022-07-26T11:09:34.500Z,94295.63
2022-07-26T11:12:21.609Z,94293.22
2022-07-26T11:14:48.873Z,94298.88
2022-07-26T11:17:30.699Z,94291.59
2022-07-26T11:19:57.994Z,94294.91
2022-07-26T11:22:35.371Z,94283.78
2022-07-26T11:25:03.191Z,94279.97
2022-07-26T11:27:29.782Z,94288.28
2022-07-26T11:30:04.712Z,94299.06
2022-07-26T11:32:32.075Z,94286.03
2022-07-26T11:35:01.094Z,94280.50
2022-07-26T11:37:28.489Z,94286.47
2022-07-26T11:39:55.273Z,94281.69
2022-07-26T11:42:22.381Z,94277.00
2022-07-26T11:44:50.706Z,94279.31
2022-07-26T11:47:20.396Z,94288.47
2022-07-26T11:50:01.074Z,94285.69
2022-07-26T11:52:35.234Z,94280.84
2022-07-26T11:55:01.872Z,94276.59
2022-07-26T11:57:31.053Z,94281.72
2022-07-26T12:00:00.646Z,94267.84
2022-07-26T12:02:38.354Z,94274.41
2022-07-26T12:05:23.275Z,94270.53
2022-07-26T12:08:04.222Z,94284.94
2022-07-26T12:10:31.482Z,94297.41
2022-07-26T12:13:11.545Z,94278.53
2022-07-26T12:15:46.507Z,94282.34
2022-07-26T12:18:30.448Z,94275.63
2022-07-26T12:21:07.492Z,94272.09
2022-07-26T12:23:41.564Z,94269.56
2022-07-26T12:26:28.317Z,94274.13
2022-07-26T12:28:55.856Z,94277.06
2022-07-26T12:31:23.881Z,94272.78
2022-07-26T12:33:50.616Z,94274.44
2022-07-26T12:36:28.017Z,94274.69
2022-07-26T12:38:57.481Z,94271.13
2022-07-26T12:41:39.576Z,94272.72
2022-07-26T12:44:11.515Z,94266.53
2022-07-26T12:46:39.093Z,94262.84
2022-07-26T12:49:05.979Z,94264.66
2022-07-26T12:51:33.424Z,94250.09
2022-07-26T12:54:00.158Z,94253.13
2022-07-26T12:56:26.829Z,94256.44
2022-07-26T12:58:54.306Z,94250.88
2022-07-26T13:01:21.374Z,94260.47
2022-07-26T13:03:48.190Z,94270.03
2022-07-26T13:06:14.774Z,94268.91
2022-07-26T13:08:41.427Z,94267.47
2022-07-26T13:11:08.052Z,94258.34
2022-07-26T13:13:34.681Z,94272.13
2022-07-26T13:16:01.293Z,94273.88
2022-07-26T13:18:27.956Z,94263.03
2022-07-26T13:20:54.567Z,94259.63
2022-07-26T13:23:21.571Z,94263.41
2022-07-26T13:25:49.785Z,94257.84
2022-07-26T13:28:17.198Z,94262.63
2022-07-26T13:30:44.072Z,94266.72
2022-07-26T13:33:11.592Z,94262.81
2022-07-26T13:35:42.617Z,94257.84
2022-07-26T13:38:09.816Z,94254.38
2022-07-26T13:40:36.711Z,94246.81
2022-07-26T13:43:04.399Z,94251.19
2022-07-26T13:45:31.020Z,94251.91
2022-07-26T13:47:58.838Z,94258.81
2022-07-26T13:50:27.176Z,94253.03
2022-07-26T13:52:56.221Z,94258.88
2022-07-26T13:55:23.485Z,94258.19
2022-07-26T13:57:57.015Z,94248.97
2022-07-26T14:00:29.288Z,94247.16
2022-07-26T14:02:58.335Z,94252.34
2022-07-26T14:05:27.775Z,94253.22
2022-07-26T14:07:55.177Z,94248.47
2022-07-26T14:10:23.063Z,94252.38
2022-07-26T14:12:50.021Z,94242.47
2022-07-26T14:15:22.003Z,94258.41
2022-07-26T14:17:50.255Z,94255.75
2022-07-26T14:20:20.042Z,94260.13
2022-07-26T14:22:47.497Z,94259.59
2022-07-26T14:25:14.702Z,94256.28
2022-07-26T14:27:41.325Z,94254.19
2022-07-26T14:30:08.226Z,94262.69
2022-07-26T14:32:34.974Z,94265.59
2022-07-26T14:35:01.663Z,94266.13
2022-07-26T14:37:41.884Z,94256.66
2022-07-26T14:40:17.421Z,94260.50
2022-07-26T14:42:45.384Z,94254.22
2022-07-26T14:45:12.703Z,94245.84
2022-07-26T14:47:40.273Z,94253.75
2022-07-26T14:50:08.505Z,94252.28
2022-07-26T14:52:44.755Z,94263.75
2022-07-26T14:55:12.676Z,94260.31
2022-07-26T14:57:40.293Z,94245.06
2022-07-26T15:00:10.680Z,94255.06
2022-07-26T15:02:42.754Z,94249.28
2022-07-26T15:05:12.209Z,94257.81
2022-07-26T15:07:40.953Z,94255.41
2022-07-26T15:10:10.302Z,94252.81
2022-07-26T15:12:37.378Z,94251.13
2022-07-26T15:15:05.770Z,94252.72
2022-07-26T15:17:32.482Z,94251.75
2022-07-26T15:19:59.206Z,94252.38
2022-07-26T15:22:26.544Z,94251.44
2022-07-26T15:24:53.108Z,94249.47
2022-07-26T15:27:19.827Z,94257.19
2022-07-26T15:29:48.593Z,94256.66
2022-07-26T15:32:15.274Z,94249.81
2022-07-26T15:34:41.971Z,94245.09
2022-07-26T15:37:09.518Z,94238.78
2022-07-26T15:39:36.100Z,94242.25
2022-07-26T15:42:07.429Z,94237.81
2022-07-26T15:44:34.580Z,94214.31
2022-07-26T15:47:01.673Z,94240.22
2022-07-26T15:49:30.565Z,94241.13
2022-07-26T15:51:57.215Z,94226.78
2022-07-26T15:54:23.827Z,94219.81
2022-07-26T15:56:50.480Z,94242.50
2022-07-26T15:59:17.092Z,94232.88
2022-07-26T16:01:43.733Z,94235.25
2022-07-26T16:04:10.681Z,94228.25
2022-07-26T16:06:37.594Z,94225.06
2022-07-26T16:09:20.204Z,94214.13
2022-07-26T16:11:48.691Z,94225.03
2022-07-26T16:14:16.710Z,94219.84
2022-07-26T16:16:43.754Z,94217.59
2022-07-26T16:19:11.058Z,94219.38
2022-07-26T16:21:38.323Z,94218.19
2022-07-26T16:24:07.314Z,94225.47
2022-07-26T16:26:35.460Z,94228.38
2022-07-26T16:29:02.545Z,94217.09
2022-07-26T16:31:29.530Z,94213.75
2022-07-26T16:33:56.208Z,94208.09
2022-07-26T16:36:22.796Z,94202.38
2022-07-26T16:38:49.419Z,94208.19
2022-07-26T16:41:16.033Z,94211.75
2022-07-26T16:43:42.998Z,94215.44
2022-07-26T16:46:09.597Z,94207.84
2022-07-26T16:48:36.243Z,94207.69
2022-07-26T16:51:03.139Z,94214.78
2022-07-26T16:53:29.732Z,94205.38
2022-07-26T16:55:56.327Z,94199.28
2022-07-26T16:58:22.912Z,94200.75
2022-07-26T17:00:49.674Z,94199.94
2022-07-26T17:03:16.764Z,94201.72
2022-07-26T17:05:44.573Z,94209.00
2022-07-26T17:08:11.342Z,94208.19
2022-07-26T17:10:38.187Z,94207.97
2022-07-26T17:13:04.898Z,94200.53
2022-07-26T17:15:31.516Z,94202.31
2022-07-26T17:17:58.200Z,94206.94
2022-07-26T17:20:24.842Z,94205.88
2022-07-26T17:22:51.482Z,94204.22
2022-07-26T17:25:18.073Z,94200.69
2022-07-26T17:27:44.680Z,94204.53
2022-07-26T17:30:12.133Z,94204.94
2022-07-26T17:32:38.878Z,94193.34
2022-07-26T17:35:06.612Z,94205.84
2022-07-26T17:37:36.711Z,94206.28
2022-07-26T17:40:05.248Z,94197.47
2022-07-26T17:42:35.037Z,94203.38
2022-07-26T17:45:01.805Z,94205.41
2022-07-26T17:47:30.407Z,94209.25
2022-07-26T17:50:26.144Z,94216.19
2022-07-26T17:52:50.094Z,94203.31
2022-07-26T17:55:19.014Z,94205.97
2022-07-26T17:57:47.753Z,94210.91
2022-07-26T18:00:15.537Z,94211.91
2022-07-26T18:02:42.257Z,94213.03
2022-07-26T18:05:09.593Z,94215.63
2022-07-26T18:07:36.427Z,94211.03
2022-07-26T18:10:03.960Z,94207.81
2022-07-26T18:12:30.607Z,94205.34
2022-07-26T18:14:57.389Z,94199.28
2022-07-26T18:17:24.455Z,94208.75
2022-07-26T18:19:51.043Z,94212.44
2022-07-26T18:22:17.642Z,94208.97
2022-07-26T18:24:44.239Z,94213.06
2022-07-26T18:27:10.813Z,94211.28
2022-07-26T18:29:37.468Z,94208.72
2022-07-26T18:32:04.172Z,94215.25
2022-07-26T18:34:30.828Z,94213.38
2022-07-26T18:36:57.437Z,94211.13
2022-07-26T18:39:24.019Z,94213.78
2022-07-26T18:41:50.620Z,94213.75
2022-07-26T18:44:17.243Z,94217.16
2022-07-26T18:46:43.903Z,94214.13
2022-07-26T18:49:15.757Z,94225.88
2022-07-26T18:51:48.476Z,94215.19
2022-07-26T18:54:16.168Z,94226.19
2022-07-26T18:56:42.840Z,94229.19
2022-07-26T18:59:09.912Z,94223.81
2022-07-26T19:01:36.789Z,94228.34
2022-07-26T19:04:06.725Z,94227.19
2022-07-26T19:06:34.804Z,94228.66
2022-07-26T19:09:01.533Z,94234.31
2022-07-26T19:11:29.619Z,94227.41
2022-07-26T19:13:56.261Z,94241.03
2022-07-26T19:16:22.973Z,94241.72
2022-07-26T19:18:53.866Z,94237.06
2022-07-26T19:21:23.578Z,94242.31
2022-07-26T19:23:50.370Z,94248.72
2022-07-26T19:26:17.133Z,94246.34
2022-07-26T19:28:43.758Z,94255.81
2022-07-26T19:31:10.743Z,94258.03
2022-07-26T19:33:37.539Z,94256.44
2022-07-26T19:36:04.329Z,94252.53
2022-07-26T19:38:33.018Z,94269.28
2022-07-26T19:41:00.645Z,94271.53
2022-07-26T19:43:27.869Z,94253.19
2022-07-26T19:45:54.853Z,94266.94
2022-07-26T19:48:21.554Z,94271.88
2022-07-26T19:50:48.686Z,94269.16
2022-07-26T19:53:15.355Z,94278.63
2022-07-26T19:55:42.493Z,94286.59
2022-07-26T19:58:09.430Z,94284.66
2022-07-26T20:00:36.222Z,94291.84
2022-07-26T20:03:03.071Z,94292.19
2022-07-26T20:05:29.746Z,94294.78
2022-07-26T20:07:56.572Z,94297.44
2022-07-26T20:10:26.234Z,94298.94
2022-07-26T20:12:55.218Z,94302.31
2022-07-26T20:15:22.578Z,94296.97
2022-07-26T20:17:49.193Z,94303.72
2022-07-26T20:20:17.846Z,94310.50
2022-07-26T20:22:44.486Z,94302.53
2022-07-26T20:25:11.277Z,94295.19
2022-07-26T20:27:37.967Z,94298.19
2022-07-26T20:30:05.842Z,94295.41
2022-07-26T20:32:32.481Z,94300.31
2022-07-26T20:34:59.060Z,94301.03
2022-07-26T20:37:25.852Z,94301.75
2022-07-26T20:39:52.431Z,94303.63
2022-07-26T20:42:21.380Z,94308.47
2022-07-26T20:44:48.782Z,94300.81
2022-07-26T20:47:15.580Z,94300.72
2022-07-26T20:49:42.202Z,94304.09
2022-07-26T20:52:08.846Z,94300.63
2022-07-26T20:54:35.540Z,94289.88
2022-07-26T20:57:04.399Z,94291.69
2022-07-26T20:59:32.426Z,94290.78
2022-07-26T21:01:59.206Z,94294.09
2022-07-26T21:04:26.214Z,94291.03
2022-07-26T21:06:52.991Z,94288.78
2022-07-26T21:09:19.892Z,94295.63
2022-07-26T21:11:46.866Z,94294.09
2022-07-26T21:14:14.118Z,94294.88
2022-07-26T21:16:41.054Z,94288.75
2022-07-26T21:19:07.852Z,94291.03
2022-07-26T21:21:36.436Z,94281.81
2022-07-26T21:24:03.084Z,94291.59
2022-07-26T21:26:29.827Z,94297.66
2022-07-26T21:28:56.534Z,94286.59
2022-07-26T21:31:23.219Z,94291.53
2022-07-26T21:33:50.213Z,94299.16
2022-07-26T21:36:16.771Z,94294.19
2022-07-26T21:38:43.583Z,94284.66
2022-07-26T21:41:10.358Z,94287.25
2022-07-26T21:43:40.960Z,94286.44
2022-07-26T21:46:12.212Z,94289.00
2022-07-26T21:48:40.056Z,94287.44
2022-07-26T21:51:06.776Z,94287.72
2022-07-26T21:53:33.410Z,94293.75
2022-07-26T21:55:59.991Z,94286.50
2022-07-26T21:58:28.123Z,94288.31
2022-07-26T22:01:06.130Z,94290.47
2022-07-26T22:03:35.651Z,94293.06
2022-07-26T22:06:03.196Z,94287.03
2022-07-26T22:08:29.927Z,94286.88
2022-07-26T22:10:56.602Z,94298.66
2022-07-26T22:13:23.391Z,94295.19
2022-07-26T22:15:50.156Z,94293.31
2022-07-26T22:18:17.418Z,94298.25
2022-07-26T22:20:44.269Z,94296.00
2022-07-26T22:23:12.886Z,94299.41
2022-07-26T22:25:39.830Z,94296.00
2022-07-26T22:28:07.638Z,94286.53
2022-07-26T22:30:34.776Z,94286.09
2022-07-26T22:33:03.193Z,94295.59
2022-07-26T22:35:35.019Z,94299.72
2022-07-26T22:38:10.799Z,94299.22
2022-07-26T22:40:39.285Z,94301.00
2022-07-26T22:43:06.751Z,94301.44
2022-07-26T22:45:33.821Z,94294.69
2022-07-26T22:48:01.767Z,94304.16
2022-07-26T22:50:28.355Z,94292.47
2022-07-26T22:52:55.495Z,94295.88
2022-07-26T22:55:22.151Z,94289.72
2022-07-26T22:57:48.993Z,94291.16
2022-07-26T23:00:17.903Z,94297.06
2022-07-26T23:02:44.946Z,94308.97
2022-07-26T23:05:12.634Z,94300.22
2022-07-26T23:07:40.115Z,94292.19
2022-07-26T23:10:11.005Z,94283.91
2022-07-26T23:12:38.182Z,94284.63
2022-07-26T23:15:06.070Z,94278.53
2022-07-26T23:17:32.727Z,94290.31
2022-07-26T23:19:59.310Z,94285.38
2022-07-26T23:22:26.012Z,94289.13
2022-07-26T23:24:52.629Z,94292.84
2022-07-26T23:27:20.346Z,94286.28
2022-07-26T23:29:48.228Z,94285.88
2022-07-26T23:32:15.772Z,94286.56
2022-07-26T23:34:42.765Z,94278.19
2022-07-26T23:37:09.584Z,94274.63
2022-07-26T23:39:36.237Z,94276.69
2022-07-26T23:42:03.034Z,94285.72
2022-07-26T23:44:30.719Z,94282.66
2022-07-26T23:46:58.352Z,94287.53
2022-07-26T23:49:25.655Z,94286.31
2022-07-26T23:51:52.593Z,94279.16
2022-07-26T23:54:19.219Z,94287.09
2022-07-26T23:56:45.824Z,94275.69
2022-07-26T23:59:13.471Z,94276.38
